sensor_id;sensor_type;location;lat;lon;timestamp;P1;durP1;ratioP1;P2;durP2;ratioP2
45322;SDS011;31382;50.200;8.674;2022-09-12T00:03:03;7.45;;;3.70;;
45322;SDS011;31382;50.200;8.674;2022-09-12T00:08:04;9.65;;;3.38;;
45322;SDS011;31382;50.200;8.674;2022-09-12T00:13:06;7.50;;;3.92;;
45322;SDS011;31382;50.200;8.674;2022-09-12T00:18:12;8.25;;;3.60;;
45322;SDS011;31382;50.200;8.674;2022-09-12T00:23:16;8.65;;;3.65;;
45322;SDS011;31382;50.200;8.674;2022-09-12T00:28:18;8.80;;;3.88;;
45322;SDS011;31382;50.200;8.674;2022-09-12T00:33:20;10.93;;;3.80;;
45322;SDS011;31382;50.200;8.674;2022-09-12T00:38:21;7.10;;;3.60;;
45322;SDS011;31382;50.200;8.674;2022-09-12T00:48:32;8.30;;;3.80;;
45322;SDS011;31382;50.200;8.674;2022-09-12T00:53:40;8.82;;;3.25;;
45322;SDS011;31382;50.200;8.674;2022-09-12T00:58:46;10.90;;;2.90;;
45322;SDS011;31382;50.200;8.674;2022-09-12T01:03:52;9.68;;;3.25;;
45322;SDS011;31382;50.200;8.674;2022-09-12T01:08:54;8.15;;;3.72;;
45322;SDS011;31382;50.200;8.674;2022-09-12T01:13:59;12.63;;;3.75;;
45322;SDS011;31382;50.200;8.674;2022-09-12T01:35:30;17.80;;;3.47;;
45322;SDS011;31382;50.200;8.674;2022-09-12T01:41:00;6.43;;;3.13;;
45322;SDS011;31382;50.200;8.674;2022-09-12T01:46:22;7.57;;;3.40;;
45322;SDS011;31382;50.200;8.674;2022-09-12T01:51:35;6.85;;;3.08;;
45322;SDS011;31382;50.200;8.674;2022-09-12T01:56:42;9.20;;;3.47;;
45322;SDS011;31382;50.200;8.674;2022-09-12T02:01:47;7.75;;;3.40;;
45322;SDS011;31382;50.200;8.674;2022-09-12T02:07:00;7.28;;;2.80;;
45322;SDS011;31382;50.200;8.674;2022-09-12T02:12:05;6.43;;;3.40;;
45322;SDS011;31382;50.200;8.674;2022-09-12T02:17:15;7.45;;;3.15;;
45322;SDS011;31382;50.200;8.674;2022-09-12T02:22:24;6.47;;;2.72;;
45322;SDS011;31382;50.200;8.674;2022-09-12T02:27:31;9.20;;;3.97;;
45322;SDS011;31382;50.200;8.674;2022-09-12T02:32:47;8.15;;;4.10;;
45322;SDS011;31382;50.200;8.674;2022-09-12T02:38:01;10.65;;;4.38;;
45322;SDS011;31382;50.200;8.674;2022-09-12T02:43:07;17.13;;;4.20;;
45322;SDS011;31382;50.200;8.674;2022-09-12T02:48:14;12.60;;;4.03;;
45322;SDS011;31382;50.200;8.674;2022-09-12T02:53:21;10.70;;;3.65;;
45322;SDS011;31382;50.200;8.674;2022-09-12T02:58:25;10.38;;;4.50;;
45322;SDS011;31382;50.200;8.674;2022-09-12T03:09:01;11.90;;;4.28;;
45322;SDS011;31382;50.200;8.674;2022-09-12T03:25:00;11.52;;;4.28;;
45322;SDS011;31382;50.200;8.674;2022-09-12T03:30:12;15.80;;;4.57;;
45322;SDS011;31382;50.200;8.674;2022-09-12T03:35:15;13.20;;;4.53;;
45322;SDS011;31382;50.200;8.674;2022-09-12T03:40:23;12.25;;;4.13;;
45322;SDS011;31382;50.200;8.674;2022-09-12T03:45:24;11.05;;;4.35;;
45322;SDS011;31382;50.200;8.674;2022-09-12T03:50:26;11.30;;;4.22;;
45322;SDS011;31382;50.200;8.674;2022-09-12T03:55:28;10.88;;;4.88;;
45322;SDS011;31382;50.200;8.674;2022-09-12T04:00:30;10.52;;;4.80;;
45322;SDS011;31382;50.200;8.674;2022-09-12T04:05:31;11.27;;;4.47;;
45322;SDS011;31382;50.200;8.674;2022-09-12T04:10:33;9.32;;;4.40;;
45322;SDS011;31382;50.200;8.674;2022-09-12T04:15:35;11.57;;;4.15;;
45322;SDS011;31382;50.200;8.674;2022-09-12T04:20:36;14.68;;;4.35;;
45322;SDS011;31382;50.200;8.674;2022-09-12T04:25:38;12.30;;;4.07;;
45322;SDS011;31382;50.200;8.674;2022-09-12T04:30:40;10.45;;;3.63;;
45322;SDS011;31382;50.200;8.674;2022-09-12T04:35:41;11.57;;;4.85;;
45322;SDS011;31382;50.200;8.674;2022-09-12T04:40:45;12.52;;;4.50;;
45322;SDS011;31382;50.200;8.674;2022-09-12T04:45:47;10.15;;;4.60;;
45322;SDS011;31382;50.200;8.674;2022-09-12T04:50:49;12.02;;;4.18;;
45322;SDS011;31382;50.200;8.674;2022-09-12T04:55:51;10.38;;;4.75;;
45322;SDS011;31382;50.200;8.674;2022-09-12T05:00:52;10.35;;;4.00;;
45322;SDS011;31382;50.200;8.674;2022-09-12T05:05:54;10.27;;;4.13;;
45322;SDS011;31382;50.200;8.674;2022-09-12T05:11:00;9.85;;;4.18;;
45322;SDS011;31382;50.200;8.674;2022-09-12T05:16:05;12.60;;;5.65;;
45322;SDS011;31382;50.200;8.674;2022-09-12T05:21:11;13.40;;;4.40;;
45322;SDS011;31382;50.200;8.674;2022-09-12T05:26:15;14.60;;;4.67;;
45322;SDS011;31382;50.200;8.674;2022-09-12T05:31:21;14.48;;;4.38;;
45322;SDS011;31382;50.200;8.674;2022-09-12T05:36:28;15.05;;;3.97;;
45322;SDS011;31382;50.200;8.674;2022-09-12T05:41:30;8.07;;;3.72;;
45322;SDS011;31382;50.200;8.674;2022-09-12T05:46:35;9.82;;;3.17;;
45322;SDS011;31382;50.200;8.674;2022-09-12T05:51:39;6.07;;;2.70;;
45322;SDS011;31382;50.200;8.674;2022-09-12T05:56:43;5.75;;;2.88;;
45322;SDS011;31382;50.200;8.674;2022-09-12T06:01:46;7.97;;;3.17;;
45322;SDS011;31382;50.200;8.674;2022-09-12T06:06:49;4.85;;;2.90;;
45322;SDS011;31382;50.200;8.674;2022-09-12T06:11:51;11.18;;;3.10;;
45322;SDS011;31382;50.200;8.674;2022-09-12T06:16:53;5.25;;;2.70;;
45322;SDS011;31382;50.200;8.674;2022-09-12T06:21:55;7.10;;;2.92;;
45322;SDS011;31382;50.200;8.674;2022-09-12T06:26:57;4.47;;;2.63;;
45322;SDS011;31382;50.200;8.674;2022-09-12T06:31:58;7.82;;;3.20;;
45322;SDS011;31382;50.200;8.674;2022-09-12T06:37:00;6.85;;;2.70;;
45322;SDS011;31382;50.200;8.674;2022-09-12T06:42:04;6.05;;;2.47;;
45322;SDS011;31382;50.200;8.674;2022-09-12T06:47:05;8.30;;;3.35;;
45322;SDS011;31382;50.200;8.674;2022-09-12T06:52:07;6.28;;;2.92;;
45322;SDS011;31382;50.200;8.674;2022-09-12T06:57:09;5.68;;;2.90;;
45322;SDS011;31382;50.200;8.674;2022-09-12T07:02:10;6.25;;;3.05;;
45322;SDS011;31382;50.200;8.674;2022-09-12T07:07:12;5.65;;;3.00;;
45322;SDS011;31382;50.200;8.674;2022-09-12T07:12:14;7.63;;;3.80;;
45322;SDS011;31382;50.200;8.674;2022-09-12T07:17:16;13.10;;;3.30;;
45322;SDS011;31382;50.200;8.674;2022-09-12T07:22:18;5.38;;;2.83;;
45322;SDS011;31382;50.200;8.674;2022-09-12T07:27:20;6.15;;;2.85;;
45322;SDS011;31382;50.200;8.674;2022-09-12T07:32:22;6.38;;;3.53;;
45322;SDS011;31382;50.200;8.674;2022-09-12T07:37:23;8.00;;;2.83;;
45322;SDS011;31382;50.200;8.674;2022-09-12T07:42:25;7.45;;;3.42;;
45322;SDS011;31382;50.200;8.674;2022-09-12T07:47:27;9.45;;;2.80;;
45322;SDS011;31382;50.200;8.674;2022-09-12T07:52:28;7.85;;;2.30;;
45322;SDS011;31382;50.200;8.674;2022-09-12T07:57:31;4.75;;;1.95;;
45322;SDS011;31382;50.200;8.674;2022-09-12T08:02:33;4.68;;;2.10;;
45322;SDS011;31382;50.200;8.674;2022-09-12T08:07:35;5.78;;;2.25;;
45322;SDS011;31382;50.200;8.674;2022-09-12T08:12:36;7.13;;;2.13;;
45322;SDS011;31382;50.200;8.674;2022-09-12T08:17:38;5.25;;;2.22;;
45322;SDS011;31382;50.200;8.674;2022-09-12T08:22:41;6.47;;;2.88;;
45322;SDS011;31382;50.200;8.674;2022-09-12T08:27:43;6.47;;;1.98;;
45322;SDS011;31382;50.200;8.674;2022-09-12T08:32:46;6.45;;;2.67;;
45322;SDS011;31382;50.200;8.674;2022-09-12T08:37:48;4.80;;;2.60;;
45322;SDS011;31382;50.200;8.674;2022-09-12T08:42:55;4.60;;;2.80;;
45322;SDS011;31382;50.200;8.674;2022-09-12T08:48:14;4.25;;;2.95;;
45322;SDS011;31382;50.200;8.674;2022-09-12T08:53:17;4.75;;;2.88;;
45322;SDS011;31382;50.200;8.674;2022-09-12T08:58:23;4.28;;;2.53;;
45322;SDS011;31382;50.200;8.674;2022-09-12T09:19:50;5.32;;;3.00;;
45322;SDS011;31382;50.200;8.674;2022-09-12T09:25:08;4.82;;;2.50;;
45322;SDS011;31382;50.200;8.674;2022-09-12T09:30:23;4.35;;;2.72;;
45322;SDS011;31382;50.200;8.674;2022-09-12T09:35:31;4.55;;;2.72;;
45322;SDS011;31382;50.200;8.674;2022-09-12T09:40:49;4.25;;;2.92;;
45322;SDS011;31382;50.200;8.674;2022-09-12T09:46:12;6.50;;;2.72;;
45322;SDS011;31382;50.200;8.674;2022-09-12T09:51:16;9.13;;;2.97;;
45322;SDS011;31382;50.200;8.674;2022-09-12T09:56:32;6.18;;;3.13;;
45322;SDS011;31382;50.200;8.674;2022-09-12T10:01:44;6.03;;;3.42;;
45322;SDS011;31382;50.200;8.674;2022-09-12T10:06:49;7.20;;;2.70;;
45322;SDS011;31382;50.200;8.674;2022-09-12T10:11:55;5.80;;;3.13;;
45322;SDS011;31382;50.200;8.674;2022-09-12T10:16:57;5.45;;;3.15;;
45322;SDS011;31382;50.200;8.674;2022-09-12T10:21:59;6.22;;;3.70;;
45322;SDS011;31382;50.200;8.674;2022-09-12T10:32:18;6.68;;;2.47;;
45322;SDS011;31382;50.200;8.674;2022-09-12T10:37:37;5.40;;;2.63;;
45322;SDS011;31382;50.200;8.674;2022-09-12T10:42:50;4.65;;;2.83;;
45322;SDS011;31382;50.200;8.674;2022-09-12T10:47:54;5.20;;;2.50;;
45322;SDS011;31382;50.200;8.674;2022-09-12T11:09:44;6.80;;;2.95;;
45322;SDS011;31382;50.200;8.674;2022-09-12T11:20:32;3.55;;;2.05;;
45322;SDS011;31382;50.200;8.674;2022-09-12T11:30:52;6.25;;;2.28;;
45322;SDS011;31382;50.200;8.674;2022-09-12T11:35:58;3.42;;;1.95;;
45322;SDS011;31382;50.200;8.674;2022-09-12T11:41:06;3.00;;;1.70;;
45322;SDS011;31382;50.200;8.674;2022-09-12T11:46:13;4.95;;;1.98;;
45322;SDS011;31382;50.200;8.674;2022-09-12T11:57:22;3.95;;;2.08;;
45322;SDS011;31382;50.200;8.674;2022-09-12T12:02:29;2.97;;;1.75;;
45322;SDS011;31382;50.200;8.674;2022-09-12T12:07:39;3.30;;;1.50;;
45322;SDS011;31382;50.200;8.674;2022-09-12T12:12:45;3.42;;;1.83;;
45322;SDS011;31382;50.200;8.674;2022-09-12T12:23:03;2.92;;;1.65;;
45322;SDS011;31382;50.200;8.674;2022-09-12T12:28:05;2.45;;;1.42;;
45322;SDS011;31382;50.200;8.674;2022-09-12T12:38:27;3.67;;;1.50;;
45322;SDS011;31382;50.200;8.674;2022-09-12T12:43:36;3.10;;;1.60;;
45322;SDS011;31382;50.200;8.674;2022-09-12T12:48:49;5.63;;;1.70;;
45322;SDS011;31382;50.200;8.674;2022-09-12T12:54:34;2.22;;;1.27;;
45322;SDS011;31382;50.200;8.674;2022-09-12T12:59:55;3.23;;;1.10;;
45322;SDS011;31382;50.200;8.674;2022-09-12T13:05:16;2.60;;;1.27;;
45322;SDS011;31382;50.200;8.674;2022-09-12T13:10:25;1.90;;;1.20;;
45322;SDS011;31382;50.200;8.674;2022-09-12T13:20:44;1.75;;;1.00;;
45322;SDS011;31382;50.200;8.674;2022-09-12T13:25:55;2.58;;;1.08;;
45322;SDS011;31382;50.200;8.674;2022-09-12T13:30:59;3.55;;;1.23;;
45322;SDS011;31382;50.200;8.674;2022-09-12T13:47:06;1.88;;;0.80;;
45322;SDS011;31382;50.200;8.674;2022-09-12T13:52:17;2.03;;;0.80;;
45322;SDS011;31382;50.200;8.674;2022-09-12T13:57:33;2.95;;;0.90;;
45322;SDS011;31382;50.200;8.674;2022-09-12T14:02:41;1.10;;;0.60;;
45322;SDS011;31382;50.200;8.674;2022-09-12T14:07:53;2.08;;;0.85;;
45322;SDS011;31382;50.200;8.674;2022-09-12T14:13:02;1.25;;;0.90;;
45322;SDS011;31382;50.200;8.674;2022-09-12T14:18:22;2.08;;;1.10;;
45322;SDS011;31382;50.200;8.674;2022-09-12T14:23:28;1.85;;;1.00;;
45322;SDS011;31382;50.200;8.674;2022-09-12T14:28:33;2.20;;;0.83;;
45322;SDS011;31382;50.200;8.674;2022-09-12T14:33:48;4.53;;;0.95;;
45322;SDS011;31382;50.200;8.674;2022-09-12T14:39:28;2.35;;;0.75;;
45322;SDS011;31382;50.200;8.674;2022-09-12T14:44:33;3.45;;;0.82;;
45322;SDS011;31382;50.200;8.674;2022-09-12T14:49:36;2.45;;;0.90;;
45322;SDS011;31382;50.200;8.674;2022-09-12T14:54:38;1.02;;;0.75;;
45322;SDS011;31382;50.200;8.674;2022-09-12T14:59:42;4.13;;;0.90;;
45322;SDS011;31382;50.200;8.674;2022-09-12T15:04:48;2.70;;;0.98;;
45322;SDS011;31382;50.200;8.674;2022-09-12T15:15:31;6.30;;;0.77;;
45322;SDS011;31382;50.200;8.674;2022-09-12T15:20:36;1.05;;;0.75;;
45322;SDS011;31382;50.200;8.674;2022-09-12T15:25:39;13.23;;;1.52;;
45322;SDS011;31382;50.200;8.674;2022-09-12T15:30:41;1.15;;;0.60;;
45322;SDS011;31382;50.200;8.674;2022-09-12T15:35:43;1.73;;;1.02;;
45322;SDS011;31382;50.200;8.674;2022-09-12T15:40:47;4.10;;;0.80;;
45322;SDS011;31382;50.200;8.674;2022-09-12T15:45:53;5.25;;;0.90;;
45322;SDS011;31382;50.200;8.674;2022-09-12T15:50:55;2.80;;;0.98;;
45322;SDS011;31382;50.200;8.674;2022-09-12T15:56:01;2.20;;;0.77;;
45322;SDS011;31382;50.200;8.674;2022-09-12T16:01:03;10.70;;;1.23;;
45322;SDS011;31382;50.200;8.674;2022-09-12T16:06:05;2.00;;;1.00;;
45322;SDS011;31382;50.200;8.674;2022-09-12T16:11:30;1.73;;;0.70;;
45322;SDS011;31382;50.200;8.674;2022-09-12T16:16:31;4.32;;;1.05;;
45322;SDS011;31382;50.200;8.674;2022-09-12T16:21:33;3.25;;;0.98;;
45322;SDS011;31382;50.200;8.674;2022-09-12T16:26:34;3.72;;;0.88;;
45322;SDS011;31382;50.200;8.674;2022-09-12T16:31:36;1.33;;;0.93;;
45322;SDS011;31382;50.200;8.674;2022-09-12T16:36:39;1.25;;;0.70;;
45322;SDS011;31382;50.200;8.674;2022-09-12T16:41:40;1.70;;;1.02;;
45322;SDS011;31382;50.200;8.674;2022-09-12T16:46:42;4.05;;;1.15;;
45322;SDS011;31382;50.200;8.674;2022-09-12T16:51:44;4.07;;;1.10;;
45322;SDS011;31382;50.200;8.674;2022-09-12T16:56:47;2.13;;;1.00;;
45322;SDS011;31382;50.200;8.674;2022-09-12T17:01:50;1.77;;;1.20;;
45322;SDS011;31382;50.200;8.674;2022-09-12T17:06:52;2.80;;;1.10;;
45322;SDS011;31382;50.200;8.674;2022-09-12T17:11:54;3.22;;;1.50;;
45322;SDS011;31382;50.200;8.674;2022-09-12T17:16:56;2.92;;;1.40;;
45322;SDS011;31382;50.200;8.674;2022-09-12T17:21:58;2.03;;;1.05;;
45322;SDS011;31382;50.200;8.674;2022-09-12T17:27:00;4.82;;;1.38;;
45322;SDS011;31382;50.200;8.674;2022-09-12T17:32:01;2.30;;;1.42;;
45322;SDS011;31382;50.200;8.674;2022-09-12T17:37:03;4.90;;;1.35;;
45322;SDS011;31382;50.200;8.674;2022-09-12T17:42:05;3.17;;;1.70;;
45322;SDS011;31382;50.200;8.674;2022-09-12T17:47:08;4.57;;;2.10;;
45322;SDS011;31382;50.200;8.674;2022-09-12T17:52:09;5.57;;;1.33;;
45322;SDS011;31382;50.200;8.674;2022-09-12T17:57:12;2.13;;;1.63;;
45322;SDS011;31382;50.200;8.674;2022-09-12T18:02:13;3.13;;;1.60;;
45322;SDS011;31382;50.200;8.674;2022-09-12T18:07:17;2.83;;;1.38;;
45322;SDS011;31382;50.200;8.674;2022-09-12T18:12:19;2.78;;;1.70;;
45322;SDS011;31382;50.200;8.674;2022-09-12T18:17:21;4.32;;;1.38;;
45322;SDS011;31382;50.200;8.674;2022-09-12T18:22:23;3.38;;;1.73;;
45322;SDS011;31382;50.200;8.674;2022-09-12T18:27:25;4.97;;;1.77;;
45322;SDS011;31382;50.200;8.674;2022-09-12T18:32:26;4.22;;;1.25;;
45322;SDS011;31382;50.200;8.674;2022-09-12T18:37:28;6.43;;;1.65;;
45322;SDS011;31382;50.200;8.674;2022-09-12T18:42:29;4.68;;;1.67;;
45322;SDS011;31382;50.200;8.674;2022-09-12T18:47:31;4.18;;;1.88;;
45322;SDS011;31382;50.200;8.674;2022-09-12T18:52:33;6.78;;;1.77;;
45322;SDS011;31382;50.200;8.674;2022-09-12T18:57:34;2.92;;;1.52;;
45322;SDS011;31382;50.200;8.674;2022-09-12T19:02:36;4.32;;;2.13;;
45322;SDS011;31382;50.200;8.674;2022-09-12T19:07:38;3.47;;;1.75;;
45322;SDS011;31382;50.200;8.674;2022-09-12T19:12:39;3.90;;;2.30;;
45322;SDS011;31382;50.200;8.674;2022-09-12T19:17:41;5.63;;;2.03;;
45322;SDS011;31382;50.200;8.674;2022-09-12T19:22:43;3.65;;;1.60;;
45322;SDS011;31382;50.200;8.674;2022-09-12T19:27:45;6.05;;;1.85;;
45322;SDS011;31382;50.200;8.674;2022-09-12T19:32:47;3.78;;;1.63;;
45322;SDS011;31382;50.200;8.674;2022-09-12T19:37:49;4.43;;;2.20;;
45322;SDS011;31382;50.200;8.674;2022-09-12T19:42:51;2.85;;;1.58;;
45322;SDS011;31382;50.200;8.674;2022-09-12T19:47:52;7.10;;;2.05;;
45322;SDS011;31382;50.200;8.674;2022-09-12T19:52:54;7.50;;;1.90;;
45322;SDS011;31382;50.200;8.674;2022-09-12T19:57:56;3.58;;;1.95;;
45322;SDS011;31382;50.200;8.674;2022-09-12T20:02:57;3.65;;;1.98;;
45322;SDS011;31382;50.200;8.674;2022-09-12T20:07:59;5.65;;;1.92;;
45322;SDS011;31382;50.200;8.674;2022-09-12T20:13:01;5.00;;;1.70;;
45322;SDS011;31382;50.200;8.674;2022-09-12T20:18:02;5.65;;;2.35;;
45322;SDS011;31382;50.200;8.674;2022-09-12T20:23:05;6.47;;;1.77;;
45322;SDS011;31382;50.200;8.674;2022-09-12T20:28:07;7.05;;;2.20;;
45322;SDS011;31382;50.200;8.674;2022-09-12T20:33:08;3.58;;;1.90;;
45322;SDS011;31382;50.200;8.674;2022-09-12T20:38:10;7.05;;;2.13;;
45322;SDS011;31382;50.200;8.674;2022-09-12T20:43:11;4.75;;;1.95;;
45322;SDS011;31382;50.200;8.674;2022-09-12T20:48:13;8.82;;;2.03;;
45322;SDS011;31382;50.200;8.674;2022-09-12T20:53:15;6.05;;;2.38;;
45322;SDS011;31382;50.200;8.674;2022-09-12T20:58:17;4.93;;;2.42;;
45322;SDS011;31382;50.200;8.674;2022-09-12T21:03:19;6.22;;;2.15;;
45322;SDS011;31382;50.200;8.674;2022-09-12T21:08:21;7.65;;;2.13;;
45322;SDS011;31382;50.200;8.674;2022-09-12T21:13:23;11.52;;;2.20;;
45322;SDS011;31382;50.200;8.674;2022-09-12T21:18:25;10.40;;;2.00;;
45322;SDS011;31382;50.200;8.674;2022-09-12T21:23:26;3.72;;;1.77;;
45322;SDS011;31382;50.200;8.674;2022-09-12T21:28:29;4.45;;;2.33;;
45322;SDS011;31382;50.200;8.674;2022-09-12T21:33:31;3.78;;;1.80;;
45322;SDS011;31382;50.200;8.674;2022-09-12T21:38:33;5.82;;;1.85;;
45322;SDS011;31382;50.200;8.674;2022-09-12T21:43:34;6.95;;;2.20;;
45322;SDS011;31382;50.200;8.674;2022-09-12T21:48:37;4.28;;;1.48;;
45322;SDS011;31382;50.200;8.674;2022-09-12T21:53:39;8.07;;;1.88;;
45322;SDS011;31382;50.200;8.674;2022-09-12T21:58:41;3.38;;;1.88;;
45322;SDS011;31382;50.200;8.674;2022-09-12T22:03:42;4.07;;;1.75;;
45322;SDS011;31382;50.200;8.674;2022-09-12T22:08:44;4.68;;;2.20;;
45322;SDS011;31382;50.200;8.674;2022-09-12T22:13:46;4.25;;;1.80;;
45322;SDS011;31382;50.200;8.674;2022-09-12T22:18:48;5.78;;;2.17;;
45322;SDS011;31382;50.200;8.674;2022-09-12T22:23:50;7.53;;;2.08;;
45322;SDS011;31382;50.200;8.674;2022-09-12T22:29:11;11.98;;;2.05;;
45322;SDS011;31382;50.200;8.674;2022-09-12T22:34:15;4.82;;;1.75;;
45322;SDS011;31382;50.200;8.674;2022-09-12T22:39:17;4.45;;;2.05;;
45322;SDS011;31382;50.200;8.674;2022-09-12T22:44:19;4.45;;;2.30;;
45322;SDS011;31382;50.200;8.674;2022-09-12T22:49:21;6.50;;;1.83;;
45322;SDS011;31382;50.200;8.674;2022-09-12T22:54:23;5.65;;;2.08;;
45322;SDS011;31382;50.200;8.674;2022-09-12T22:59:24;3.63;;;2.10;;
45322;SDS011;31382;50.200;8.674;2022-09-12T23:04:26;3.72;;;1.95;;
45322;SDS011;31382;50.200;8.674;2022-09-12T23:09:28;6.93;;;2.15;;
45322;SDS011;31382;50.200;8.674;2022-09-12T23:14:35;7.53;;;2.25;;
45322;SDS011;31382;50.200;8.674;2022-09-12T23:19:37;5.65;;;2.22;;
45322;SDS011;31382;50.200;8.674;2022-09-12T23:24:38;6.90;;;1.92;;
45322;SDS011;31382;50.200;8.674;2022-09-12T23:29:40;3.53;;;2.10;;
45322;SDS011;31382;50.200;8.674;2022-09-12T23:34:41;4.45;;;2.53;;
45322;SDS011;31382;50.200;8.674;2022-09-12T23:39:43;8.60;;;2.15;;
45322;SDS011;31382;50.200;8.674;2022-09-12T23:44:45;3.25;;;1.60;;
45322;SDS011;31382;50.200;8.674;2022-09-12T23:49:47;4.72;;;2.08;;
45322;SDS011;31382;50.200;8.674;2022-09-12T23:54:48;2.90;;;1.83;;
45322;SDS011;31382;50.200;8.674;2022-09-12T23:59:50;6.28;;;2.10;;
